Latest Weather Observations for Darwin Harbour

IDD60801

Issued at 11:31 pm CST Tuesday 12 December 2017 (issued every 30 minutes, with the page automatically refreshed every 10 minutes)

About weather observations | Map of weather stations | Latest weather observations for NT | Other Formats
Station Details ID: 014072 Name: DARWIN NTC AWS Lat: -12.47 Lon: 130.85 Height: 0.0 m
Data from the previous 72 hours. | See also: Recent months for locations in Northern Territory
Date/Time
CST
Temp
°C
App
Temp
°C
Dew
Point
°C
Rel
Hum
%
Delta-T
°C
Wind Press
QNH
hPa
Press
MSL
hPa
Rain since
9am
mm
Dir  Spd
km/h
Gust
km/h
Spd
kts
Gust
kts
12/11:30pm - - - - - NNE 9 17 5 9 1008.2 1008.1 -
12/11:00pm - - - - - NE 11 22 6 12 1008.1 1008.0 -
12/10:30pm - - - - - ENE 9 19 5 10 1008.3 1008.2 -
12/10:00pm - - - - - E 30 39 16 21 1008.1 1008.0 -
12/09:54pm - - - - - ESE 22 37 12 20 1008.1 1008.0 -
12/09:30pm - - - - - WNW 4 7 2 4 1008.0 1007.9 -
12/09:00pm - - - - - NW 7 11 4 6 1007.4 1007.3 -
12/08:30pm - - - - - W 4 6 2 3 1006.8 1006.7 -
12/08:00pm - - - - - WSW 4 6 2 3 1006.6 1006.5 -
12/07:30pm - - - - - WSW 7 11 4 6 1006.1 1006.0 -
12/07:00pm - - - - - W 7 9 4 5 1006.2 1006.1 -
12/06:30pm - - - - - W 6 7 3 4 1006.0 1005.9 -
12/06:00pm - - - - - W 6 9 3 5 1005.7 1005.6 -
12/05:30pm - - - - - WSW 17 20 9 11 1005.3 1005.2 -
12/05:00pm - - - - - SW 19 24 10 13 1005.6 1005.5 -
12/04:30pm - - - - - SW 20 26 11 14 1005.8 1005.7 -
12/04:00pm - - - - - SW 24 30 13 16 1006.3 1006.2 -
12/03:30pm - - - - - SW 17 20 9 11 1005.9 1005.8 -
12/03:00pm - - - - - SW 20 28 11 15 1006.3 1006.2 -
12/02:30pm - - - - - WNW 20 30 11 16 1006.3 1006.2 -
12/02:00pm - - - - - NW 20 30 11 16 1006.7 1006.6 -
12/01:30pm - - - - - WNW 19 26 10 14 1007.5 1007.4 -
12/01:00pm - - - - - WNW 20 28 11 15 1008.1 1008.0 -
12/12:30pm - - - - - WNW 13 28 7 15 1008.7 1008.6 -
12/12:00pm - - - - - W 13 20 7 11 1009.1 1009.0 -
12/11:30am - - - - - W 9 13 5 7 1009.5 1009.4 -
12/11:00am - - - - - W 9 15 5 8 1010.0 1009.9 -
12/10:30am - - - - - W 7 11 4 6 1010.2 1010.1 -
12/10:00am - - - - - W 11 15 6 8 1010.4 1010.3 -
12/09:30am - - - - - W 11 17 6 9 1010.3 1010.2 -
12/09:00am - - - - - WNW 9 15 5 8 1010.3 1010.2 -
12/08:30am - - - - - WNW 9 13 5 7 1010.0 1009.9 -
12/08:00am - - - - - WNW 9 15 5 8 1009.7 1009.6 -
12/07:30am - - - - - WNW 9 13 5 7 1009.4 1009.3 -
12/07:00am - - - - - W 11 15 6 8 1008.9 1008.8 -
12/06:30am - - - - - W 13 17 7 9 1008.5 1008.4 -
12/06:00am - - - - - NW 9 15 5 8 1008.2 1008.1 -
12/05:30am - - - - - NW 11 17 6 9 1008.0 1007.9 -
12/05:00am - - - - - NW 9 15 5 8 1008.0 1007.9 -
12/04:30am - - - - - NW 9 13 5 7 1008.1 1008.0 -
12/04:00am - - - - - NNW 7 13 4 7 1008.1 1008.0 -
12/03:30am - - - - - NW 7 11 4 6 1008.1 1008.0 -
12/03:00am - - - - - NW 9 19 5 10 1007.9 1007.8 -
12/02:30am - - - - - NW 9 19 5 10 1008.0 1007.9 -
12/02:00am - - - - - N 7 13 4 7 1008.5 1008.4 -
12/01:30am - - - - - NW 11 17 6 9 1008.5 1008.4 -
12/01:00am - - - - - WNW 15 22 8 12 1008.6 1008.5 -
12/12:30am - - - - - WNW 17 26 9 14 1008.7 1008.6 -
12/12:00am - - - - - WNW 17 24 9 13 1009.1 1009.0 -
 
Date/Time
CST
Temp
°C
App
Temp
°C
Dew
Point
°C
Rel
Hum
%
Delta-T
°C
Wind Press
QNH
hPa
Press
MSL
hPa
Rain since
9am
mm
Dir  Spd
km/h
Gust
km/h
Spd
kts
Gust
kts
11/11:30pm - - - - - WNW 22 26 12 14 1009.5 1009.4 -
11/11:00pm - - - - - WNW 13 20 7 11 1009.6 1009.5 -
11/10:30pm - - - - - NW 9 15 5 8 1009.2 1009.1 -
11/10:00pm - - - - - W 11 15 6 8 1009.1 1009.0 -
11/09:30pm - - - - - W 11 15 6 8 1008.7 1008.6 -
11/09:00pm - - - - - W 11 15 6 8 1008.7 1008.6 -
11/08:30pm - - - - - W 11 15 6 8 1008.5 1008.4 -
11/08:00pm - - - - - W 11 17 6 9 1008.4 1008.3 -
11/07:30pm - - - - - W 15 20 8 11 1008.2 1008.1 -
11/07:00pm - - - - - W 17 26 9 14 1007.4 1007.3 -
11/06:30pm - - - - - WNW 13 19 7 10 1007.3 1007.2 -
11/06:00pm - - - - - WNW 11 17 6 9 1006.7 1006.6 -
11/05:30pm - - - - - WNW 11 19 6 10 1006.1 1006.0 -
11/05:00pm - - - - - NW 13 22 7 12 1006.3 1006.2 -
11/04:30pm - - - - - NW 13 22 7 12 1006.0 1005.9 -
11/04:00pm - - - - - NW 9 20 5 11 1006.4 1006.3 -
11/03:30pm - - - - - WNW 15 20 8 11 1006.6 1006.5 -
11/03:00pm - - - - - WNW 15 22 8 12 1006.8 1006.7 -
11/02:30pm - - - - - WNW 13 19 7 10 1007.2 1007.1 -
11/02:00pm - - - - - WNW 15 19 8 10 1007.5 1007.4 -
11/01:30pm - - - - - WNW 11 17 6 9 1008.2 1008.1 -
11/01:00pm - - - - - WNW 11 19 6 10 1008.6 1008.5 -
11/12:30pm - - - - - WNW 11 19 6 10 1009.2 1009.1 -
11/12:00pm - - - - - WNW 11 15 6 8 1009.6 1009.5 -
11/11:30am - - - - - WNW 11 15 6 8 1009.8 1009.7 -
11/11:00am - - - - - WNW 11 15 6 8 1010.4 1010.3 -
11/10:30am - - - - - WSW 9 15 5 8 1010.8 1010.7 -
11/10:00am - - - - - SSW 6 7 3 4 1011.0 1010.9 -
11/09:30am - - - - - S 6 7 3 4 1011.4 1011.3 -
11/09:00am - - - - - SE 6 9 3 5 1011.3 1011.2 -
11/08:30am - - - - - ESE 7 9 4 5 1011.2 1011.1 -
11/08:00am - - - - - ESE 9 13 5 7 1011.1 1011.0 -
11/07:30am - - - - - NW 2 6 1 3 1010.8 1010.7 -
11/07:00am - - - - - NNW 2 6 1 3 1010.5 1010.4 -
11/06:30am - - - - - NW 4 9 2 5 1010.1 1010.0 -
11/06:00am - - - - - NW 4 7 2 4 1009.7 1009.6 -
11/05:30am - - - - - NW 6 9 3 5 1009.3 1009.2 -
11/05:00am - - - - - NW 7 13 4 7 1008.9 1008.8 -
11/04:30am - - - - - NW 4 11 2 6 1008.4 1008.3 -
11/04:00am - - - - - NNW 6 11 3 6 1008.3 1008.2 -
11/03:30am - - - - - NNW 7 15 4 8 1008.4 1008.3 -
11/03:00am - - - - - NNW 7 17 4 9 1008.5 1008.4 -
11/02:30am - - - - - NNW 9 19 5 10 1008.7 1008.6 -
11/02:00am - - - - - NNW 9 17 5 9 1009.0 1008.9 -
11/01:30am - - - - - N 9 17 5 9 1009.2 1009.1 -
11/01:00am - - - - - NNW 6 11 3 6 1009.6 1009.5 -
11/12:30am - - - - - NNW 6 13 3 7 1009.6 1009.5 -
11/12:00am - - - - - NW 7 17 4 9 1009.6 1009.5 -
 
Date/Time
CST
Temp
°C
App
Temp
°C
Dew
Point
°C
Rel
Hum
%
Delta-T
°C
Wind Press
QNH
hPa
Press
MSL
hPa
Rain since
9am
mm
Dir  Spd
km/h
Gust
km/h
Spd
kts
Gust
kts
10/11:30pm - - - - - NNW 11 20 6 11 1009.5 1009.4 -
10/11:00pm - - - - - NW 9 20 5 11 1009.3 1009.2 -
10/10:30pm - - - - - NW 9 15 5 8 1009.7 1009.6 -
10/10:00pm - - - - - NW 9 20 5 11 1009.4 1009.3 -
10/09:30pm - - - - - NNE 4 9 2 5 1009.1 1009.0 -
10/09:00pm - - - - - N 4 9 2 5 1008.9 1008.8 -
10/08:30pm - - - - - NE 4 7 2 4 1008.7 1008.6 -
10/08:00pm - - - - - NE 6 13 3 7 1008.3 1008.2 -
10/07:30pm - - - - - NE 7 15 4 8 1007.9 1007.8 -
10/07:00pm - - - - - E 26 32 14 17 1008.1 1008.0 -
10/06:36pm - - - - - E 26 46 14 25 1008.3 1008.2 -
10/06:33pm - - - - - ENE 19 46 10 25 1008.5 1008.4 -
10/06:30pm - - - - - ENE 11 24 6 13 1008.4 1008.3 -
10/06:00pm - - - - - NE 9 20 5 11 1007.7 1007.6 -
10/05:30pm - - - - - NE 11 24 6 13 1006.6 1006.5 -
10/05:00pm - - - - - NE 11 26 6 14 1007.1 1007.0 -
10/04:30pm - - - - - NE 15 35 8 19 1006.2 1006.1 -
10/04:00pm - - - - - NNW 17 30 9 16 1006.1 1006.0 -
10/03:30pm - - - - - N 13 28 7 15 1006.8 1006.7 -
10/03:00pm - - - - - NW 15 24 8 13 1007.2 1007.1 -
10/02:30pm - - - - - NW 13 19 7 10 1007.5 1007.4 -
10/02:00pm - - - - - NW 9 19 5 10 1007.8 1007.7 -
10/01:30pm - - - - - NW 9 17 5 9 1007.9 1007.8 -
10/01:00pm - - - - - W 9 13 5 7 1008.3 1008.2 -
10/12:30pm - - - - - W 7 13 4 7 1008.8 1008.7 -
10/12:00pm - - - - - SSW 7 11 4 6 1009.2 1009.1 -
10/11:30am - - - - - SSW 9 11 5 6 1009.6 1009.5 -
10/11:00am - - - - - SW 7 11 4 6 1009.8 1009.7 -
10/10:30am - - - - - SSW 7 11 4 6 1010.0 1009.9 -
10/10:00am - - - - - S 7 9 4 5 1010.0 1009.9 -
10/09:30am - - - - - SSW 7 9 4 5 1009.9 1009.8 -
10/09:00am - - - - - SSE 7 11 4 6 1009.9 1009.8 -
10/08:30am - - - - - SE 11 15 6 8 1009.8 1009.7 -
10/08:00am - - - - - ESE 13 15 7 8 1009.9 1009.8 -
10/07:30am - - - - - ESE 13 17 7 9 1009.5 1009.4 -
10/07:00am - - - - - ESE 15 17 8 9 1009.1 1009.0 -
10/06:30am - - - - - E 11 15 6 8 1008.6 1008.5 -
10/06:00am - - - - - NE 4 11 2 6 1008.2 1008.1 -
10/05:30am - - - - - ESE 11 15 6 8 1007.8 1007.7 -
10/05:00am - - - - - SE 11 13 6 7 1007.8 1007.7 -
10/04:30am - - - - - SE 9 13 5 7 1007.5 1007.4 -
10/04:00am - - - - - ESE 9 13 5 7 1007.5 1007.4 -
10/03:30am - - - - - SE 13 17 7 9 1007.5 1007.4 -
10/03:00am - - - - - ENE 4 6 2 3 1007.6 1007.5 -
10/02:30am - - - - - ENE 2 6 1 3 1007.5 1007.4 -
10/02:00am - - - - - NE 2 6 1 3 1007.8 1007.7 -
10/01:30am - - - - - ENE 4 7 2 4 1008.0 1007.9 -
10/01:00am - - - - - ENE 4 6 2 3 1008.1 1008.0 -
10/12:30am - - - - - NE 4 6 2 3 1008.7 1008.6 -
10/12:00am - - - - - NW 2 6 1 3 1009.1 1009.0 -

Other Formats:

Comma delimited format used in spreadsheet applications
http://www.bom.gov.au/fwo/IDD60801/IDD60801.95122.axf

JavaScript Object Notation format (JSON) in row-major order
http://www.bom.gov.au/fwo/IDD60801/IDD60801.95122.json